ダーウィン の空港の天気 - METARとTAF

ダーウィン国際空港 ( YPDN / DRW ) - オーストラリア ノーザンテリトリーダーウィン
飛行場実況気象(Metar)
観測時間08/23 02:00 ACST (08/22 16:30 UTC)
風向・風速南南東 2m/s
視程10km以上
天気現象
なし
気温21℃
湿度78%
気圧1016hPa
METARYPDN 221630Z AUTO 15003KT 9999 // NCD 21/17 Q1016
過去の天気等 Google飛行場航空写真 Wunderground天気予報

過去48時間のMETAR

飛行場予報(TAF)
発表時間: 8/22 20:50 ACST (8/22 11:20 UTC)
予報対象時間: 22日21時 ACST ~ 24日3時 ACST
風向・風速不定 3m/s
視程10km以上
なし
23日3時 ACST から
風向・風速東 3m/s
視程10km以上
少しの雲 雲底高度 610m
23日9時 ACST から
風向・風速東北東 5m/s
視程10km以上
なし
23日15時 ACST から
風向・風速北北西 5m/s
視程10km以上
なし
23日20時 ACST から
風向・風速不定 3m/s
視程10km以上
なし
TAF YPDN 221120Z 2212/2318 VRB05KT CAVOK
FM221800 10005KT 9999 FEW020
FM230000 07010KT CAVOK
FM230600 33010KT CAVOK
FM231100 VRB05KT CAVOK